createdAt,value
2018-11-03T00:00:50.235Z,7.10
2018-11-03T00:03:18.844Z,7.10
2018-11-03T00:05:47.386Z,7.00
2018-11-03T00:08:16.052Z,7.00
2018-11-03T00:10:44.614Z,7.00
2018-11-03T00:13:13.165Z,7.00
2018-11-03T00:15:41.753Z,7.00
2018-11-03T00:18:10.300Z,7.00
2018-11-03T00:20:39.201Z,7.00
2018-11-03T00:23:08.375Z,7.00
2018-11-03T00:25:37.004Z,7.00
2018-11-03T00:28:05.805Z,7.00
2018-11-03T00:30:34.438Z,7.10
2018-11-03T00:33:03.122Z,7.00
2018-11-03T00:35:31.661Z,7.00
2018-11-03T00:38:00.202Z,7.00
2018-11-03T00:40:28.856Z,6.90
2018-11-03T00:42:57.459Z,7.00
2018-11-03T00:45:26.001Z,6.90
2018-11-03T00:47:54.551Z,7.00
2018-11-03T00:50:23.113Z,7.00
2018-11-03T00:52:51.673Z,7.00
2018-11-03T00:55:20.217Z,7.00
2018-11-03T00:57:48.755Z,7.00
2018-11-03T01:00:18.458Z,7.00
2018-11-03T01:02:48.081Z,7.10
2018-11-03T01:05:16.708Z,7.10
2018-11-03T01:07:45.583Z,7.00
2018-11-03T01:10:14.666Z,7.00
2018-11-03T01:12:43.216Z,7.00
2018-11-03T01:15:16.232Z,6.90
2018-11-03T01:17:45.090Z,6.90
2018-11-03T01:20:16.745Z,6.80
2018-11-03T01:22:45.421Z,6.70
2018-11-03T01:25:13.952Z,6.60
2018-11-03T01:27:42.532Z,6.50
2018-11-03T01:30:13.845Z,6.50
2018-11-03T01:32:42.796Z,6.40
2018-11-03T01:35:11.320Z,6.40
2018-11-03T01:37:40.464Z,6.30
2018-11-03T01:40:10.847Z,6.30
2018-11-03T01:42:39.799Z,6.30
2018-11-03T01:45:08.745Z,6.40
2018-11-03T01:47:37.589Z,6.30
2018-11-03T01:50:07.958Z,6.30
2018-11-03T01:52:37.296Z,6.30
2018-11-03T01:55:06.322Z,6.40
2018-11-03T01:57:35.065Z,6.40
2018-11-03T02:00:03.782Z,6.40
2018-11-03T02:02:32.541Z,6.40
2018-11-03T02:05:01.356Z,6.50
2018-11-03T02:07:29.932Z,6.40
2018-11-03T02:09:58.490Z,6.50
2018-11-03T02:12:27.102Z,6.50
2018-11-03T02:14:55.638Z,6.50
2018-11-03T02:17:24.210Z,6.50
2018-11-03T02:19:52.871Z,6.50
2018-11-03T02:22:21.538Z,6.50
2018-11-03T02:24:50.118Z,6.50
2018-11-03T02:27:18.682Z,6.50
2018-11-03T02:29:47.209Z,6.50
2018-11-03T02:32:15.865Z,6.50
2018-11-03T02:34:44.385Z,6.50
2018-11-03T02:37:12.925Z,6.50
2018-11-03T02:39:41.483Z,6.40
2018-11-03T02:42:10.051Z,6.50
2018-11-03T02:44:38.586Z,6.50
2018-11-03T02:47:07.527Z,6.40
2018-11-03T02:49:36.081Z,6.40
2018-11-03T02:52:04.665Z,6.50
2018-11-03T02:54:33.225Z,6.50
2018-11-03T02:57:01.818Z,6.50
2018-11-03T02:59:30.329Z,6.50
2018-11-03T03:01:58.874Z,6.60
2018-11-03T03:04:27.409Z,6.60
2018-11-03T03:06:56.025Z,6.60
2018-11-03T03:09:24.563Z,6.70
2018-11-03T03:11:53.225Z,6.70
2018-11-03T03:14:21.775Z,6.70
2018-11-03T03:16:50.510Z,6.70
2018-11-03T03:19:19.065Z,6.80
2018-11-03T03:21:47.634Z,6.80
2018-11-03T03:24:16.213Z,6.80
2018-11-03T03:26:44.747Z,6.90
2018-11-03T03:29:13.384Z,6.80
2018-11-03T03:31:41.817Z,6.90
2018-11-03T03:34:10.365Z,6.80
2018-11-03T03:36:38.893Z,6.90
2018-11-03T03:39:09.110Z,6.90
2018-11-03T03:41:37.713Z,6.90
2018-11-03T03:44:06.318Z,6.90
2018-11-03T03:46:35.173Z,7.00
2018-11-03T03:49:03.729Z,7.00
2018-11-03T03:51:32.277Z,7.10
2018-11-03T03:54:00.885Z,7.10
2018-11-03T03:56:29.450Z,7.10
2018-11-03T03:58:57.966Z,7.10
2018-11-03T04:01:26.510Z,7.10
2018-11-03T04:03:55.018Z,7.10
2018-11-03T04:06:23.573Z,7.10
2018-11-03T04:08:52.111Z,7.00
2018-11-03T04:11:20.654Z,7.00
2018-11-03T04:13:49.540Z,7.00
2018-11-03T04:16:18.129Z,7.00
2018-11-03T04:18:46.643Z,7.00
2018-11-03T04:21:31.798Z,6.90
2018-11-03T04:24:00.346Z,6.90
2018-11-03T04:26:30.106Z,6.90
2018-11-03T04:28:59.248Z,6.80
2018-11-03T04:31:28.362Z,6.80
2018-11-03T04:33:57.251Z,6.80
2018-11-03T04:36:25.850Z,6.80
2018-11-03T04:38:54.373Z,6.80
2018-11-03T04:41:22.922Z,6.80
2018-11-03T04:43:51.493Z,6.80
2018-11-03T04:46:20.137Z,6.80
2018-11-03T04:48:48.747Z,6.80
2018-11-03T04:51:17.405Z,6.80
2018-11-03T04:53:45.950Z,6.80
2018-11-03T04:56:14.472Z,6.80
2018-11-03T04:58:43.021Z,6.80
2018-11-03T05:01:11.541Z,6.90
2018-11-03T05:03:40.101Z,6.90
2018-11-03T05:06:08.621Z,6.80
2018-11-03T05:08:37.197Z,6.90
2018-11-03T05:11:06.013Z,6.90
2018-11-03T05:13:34.774Z,6.80
2018-11-03T05:16:03.300Z,6.80
2018-11-03T05:18:31.885Z,6.70
2018-11-03T05:21:00.440Z,6.80
2018-11-03T05:23:28.946Z,6.80
2018-11-03T05:25:57.494Z,6.80
2018-11-03T05:28:26.053Z,6.90
2018-11-03T05:30:54.621Z,6.80
2018-11-03T05:33:23.155Z,6.80
2018-11-03T05:35:51.765Z,6.80
2018-11-03T05:38:20.277Z,6.80
2018-11-03T05:40:48.825Z,6.90
2018-11-03T05:43:17.372Z,6.90
2018-11-03T05:45:45.917Z,6.80
2018-11-03T05:48:14.490Z,6.80
2018-11-03T05:50:43.073Z,6.80
2018-11-03T05:53:11.657Z,6.80
2018-11-03T05:55:40.342Z,6.80
2018-11-03T05:58:08.854Z,6.80
2018-11-03T06:00:37.526Z,6.80
2018-11-03T06:03:06.198Z,6.80
2018-11-03T06:05:34.753Z,6.80
2018-11-03T06:08:03.361Z,6.70
2018-11-03T06:10:32.786Z,6.70
2018-11-03T06:13:01.441Z,6.70
2018-11-03T06:15:30.026Z,6.70
2018-11-03T06:17:58.589Z,6.80
2018-11-03T06:20:27.393Z,6.80
2018-11-03T06:22:56.068Z,6.80
2018-11-03T06:25:24.534Z,6.80
2018-11-03T06:27:53.126Z,6.90
2018-11-03T06:30:21.663Z,6.80
2018-11-03T06:32:50.361Z,6.90
2018-11-03T06:35:18.909Z,6.90
2018-11-03T06:37:47.429Z,6.90
2018-11-03T06:40:15.964Z,6.90
2018-11-03T06:42:44.493Z,7.00
2018-11-03T06:45:13.034Z,6.90
2018-11-03T06:47:41.661Z,6.90
2018-11-03T06:50:10.426Z,7.00
2018-11-03T06:52:38.993Z,7.00
2018-11-03T06:55:07.974Z,7.00
2018-11-03T06:57:36.630Z,7.00
2018-11-03T07:00:07.127Z,7.00
2018-11-03T07:02:35.698Z,7.00
2018-11-03T07:05:04.643Z,7.10
2018-11-03T07:07:33.234Z,7.10
2018-11-03T07:10:01.790Z,7.10
2018-11-03T07:12:30.544Z,7.20
2018-11-03T07:14:58.974Z,7.20
2018-11-03T07:17:27.515Z,7.30
2018-11-03T07:19:56.096Z,7.30
2018-11-03T07:22:24.691Z,7.30
2018-11-03T07:24:53.261Z,7.40
2018-11-03T07:27:21.855Z,7.40
2018-11-03T07:29:50.437Z,7.40
2018-11-03T07:32:18.952Z,7.50
2018-11-03T07:34:47.633Z,7.50
2018-11-03T07:37:16.157Z,7.60
2018-11-03T07:39:44.729Z,7.60
2018-11-03T07:42:13.400Z,7.70
2018-11-03T07:44:41.949Z,7.70
2018-11-03T07:47:10.498Z,7.80
2018-11-03T07:49:39.044Z,7.80
2018-11-03T07:52:07.650Z,7.80
2018-11-03T07:54:36.207Z,7.80
2018-11-03T07:57:04.826Z,7.90
2018-11-03T07:59:33.393Z,8.00
2018-11-03T08:02:02.133Z,8.00
2018-11-03T08:04:30.917Z,8.10
2018-11-03T08:06:59.484Z,8.20
2018-11-03T08:09:28.089Z,8.20
2018-11-03T08:11:56.757Z,8.20
2018-11-03T08:14:25.389Z,8.30
2018-11-03T08:16:53.942Z,8.30
2018-11-03T08:19:22.685Z,8.40
2018-11-03T08:21:51.393Z,8.40
2018-11-03T08:24:20.129Z,8.50
2018-11-03T08:26:48.722Z,8.50
2018-11-03T08:29:17.298Z,8.60
2018-11-03T08:31:45.902Z,8.50
2018-11-03T08:34:14.487Z,8.60
2018-11-03T08:36:43.101Z,8.60
2018-11-03T08:39:12.154Z,8.70
2018-11-03T08:41:40.864Z,8.70
2018-11-03T08:44:09.654Z,8.80
2018-11-03T08:46:38.313Z,8.80
2018-11-03T08:49:07.216Z,8.80
2018-11-03T08:51:35.825Z,8.90
2018-11-03T08:54:04.557Z,9.00
2018-11-03T08:56:33.112Z,9.10
2018-11-03T08:59:01.685Z,9.10
2018-11-03T09:01:30.193Z,9.20
2018-11-03T09:03:58.765Z,9.20
2018-11-03T09:06:27.480Z,9.20
2018-11-03T09:08:56.085Z,9.30
2018-11-03T09:11:24.720Z,9.30
2018-11-03T09:13:53.489Z,9.30
2018-11-03T09:16:22.098Z,9.30
2018-11-03T09:18:50.607Z,9.20
2018-11-03T09:21:19.207Z,9.20
2018-11-03T09:23:47.825Z,9.30
2018-11-03T09:26:16.408Z,9.40
2018-11-03T09:28:45.003Z,9.40
2018-11-03T09:31:13.782Z,9.40
2018-11-03T09:33:42.470Z,9.50
2018-11-03T09:36:11.120Z,9.50
2018-11-03T09:38:39.766Z,9.40
2018-11-03T09:41:08.324Z,9.40
2018-11-03T09:43:36.921Z,9.50
2018-11-03T09:46:06.833Z,9.50
2018-11-03T09:48:35.507Z,9.60
2018-11-03T09:51:04.199Z,9.70
2018-11-03T09:53:32.992Z,9.70
2018-11-03T09:56:01.654Z,9.70
2018-11-03T09:58:30.225Z,9.80
2018-11-03T10:00:58.757Z,9.90
2018-11-03T10:03:27.620Z,9.90
2018-11-03T10:05:56.406Z,9.90
2018-11-03T10:08:25.270Z,10.00
2018-11-03T10:10:53.871Z,10.00
2018-11-03T10:13:22.635Z,9.90
2018-11-03T10:15:51.308Z,10.00
2018-11-03T10:18:19.967Z,10.10
2018-11-03T10:20:48.610Z,10.20
2018-11-03T10:23:17.357Z,10.30
2018-11-03T10:25:46.119Z,10.30
2018-11-03T10:28:14.651Z,10.20
2018-11-03T10:30:43.571Z,10.20
2018-11-03T10:33:12.147Z,10.10
2018-11-03T10:35:40.761Z,10.20
2018-11-03T10:38:09.400Z,10.40
2018-11-03T10:40:37.985Z,10.40
2018-11-03T10:43:06.780Z,10.40
2018-11-03T10:45:35.427Z,10.30
2018-11-03T10:48:04.005Z,10.30
2018-11-03T10:50:32.640Z,10.20
2018-11-03T10:53:01.177Z,10.20
2018-11-03T10:55:30.051Z,10.20
2018-11-03T10:57:58.610Z,10.30
2018-11-03T11:00:32.469Z,10.40
2018-11-03T11:03:06.177Z,10.40
2018-11-03T11:05:39.320Z,10.40
2018-11-03T11:08:13.267Z,10.40
2018-11-03T11:10:47.132Z,10.50
2018-11-03T11:13:24.865Z,10.50
2018-11-03T11:15:55.337Z,10.40
2018-11-03T11:18:23.944Z,10.40
2018-11-03T11:20:52.653Z,10.50
2018-11-03T11:23:21.267Z,10.50
2018-11-03T11:25:49.899Z,10.60
2018-11-03T11:28:18.572Z,10.60
2018-11-03T11:30:47.441Z,10.50
2018-11-03T11:33:17.158Z,10.50
2018-11-03T11:35:45.738Z,10.60
2018-11-03T11:38:14.972Z,10.60
2018-11-03T11:40:43.890Z,10.50
2018-11-03T11:43:13.632Z,10.50
2018-11-03T11:45:42.126Z,10.50
2018-11-03T11:48:10.956Z,10.50
2018-11-03T11:50:39.576Z,10.60
2018-11-03T11:53:08.470Z,10.70
2018-11-03T11:55:37.034Z,10.50
2018-11-03T11:58:06.248Z,10.50
2018-11-03T12:00:34.893Z,10.60
2018-11-03T12:03:04.193Z,10.70
2018-11-03T12:05:32.905Z,10.60
2018-11-03T12:08:01.507Z,10.60
2018-11-03T12:10:30.412Z,10.60
2018-11-03T12:12:59.194Z,10.60
2018-11-03T12:15:27.791Z,10.70
2018-11-03T12:17:56.462Z,10.90
2018-11-03T12:20:25.106Z,11.00
2018-11-03T12:22:53.777Z,11.20
2018-11-03T12:25:22.396Z,11.20
2018-11-03T12:27:50.976Z,11.10
2018-11-03T12:30:19.561Z,11.10
2018-11-03T12:32:48.202Z,11.10
2018-11-03T12:35:16.869Z,11.00
2018-11-03T12:37:45.484Z,11.00
2018-11-03T12:40:15.322Z,11.10
2018-11-03T12:42:43.920Z,11.10
2018-11-03T12:45:13.228Z,11.10
2018-11-03T12:47:42.357Z,11.20
2018-11-03T12:50:13.733Z,11.30
2018-11-03T12:52:42.396Z,11.30
2018-11-03T12:55:11.661Z,11.40
2018-11-03T12:57:40.913Z,11.40
2018-11-03T13:00:12.277Z,11.40
2018-11-03T13:02:41.963Z,11.30
2018-11-03T13:05:10.872Z,11.10
2018-11-03T13:07:40.574Z,11.10
2018-11-03T13:10:09.992Z,11.20
2018-11-03T13:12:39.457Z,11.10
2018-11-03T13:15:09.600Z,11.10
2018-11-03T13:17:38.283Z,11.10
2018-11-03T13:20:08.493Z,11.10
2018-11-03T13:22:37.104Z,11.20
2018-11-03T13:25:06.602Z,11.20
2018-11-03T13:27:35.269Z,11.20
2018-11-03T13:30:03.894Z,11.20
2018-11-03T13:32:32.542Z,11.00
2018-11-03T13:35:01.246Z,11.10
2018-11-03T13:37:29.796Z,11.10
2018-11-03T13:39:58.363Z,11.00
2018-11-03T13:42:26.950Z,10.90
2018-11-03T13:44:55.531Z,10.90
2018-11-03T13:47:24.367Z,10.90
2018-11-03T13:49:52.879Z,10.80
2018-11-03T13:52:21.423Z,10.80
2018-11-03T13:54:50.073Z,10.70
2018-11-03T13:57:18.689Z,10.80
2018-11-03T13:59:47.641Z,10.70
2018-11-03T14:02:16.229Z,10.70
2018-11-03T14:04:44.790Z,10.70
2018-11-03T14:07:13.521Z,10.70
2018-11-03T14:09:42.176Z,10.70
2018-11-03T14:12:10.798Z,10.60
2018-11-03T14:14:39.420Z,10.60
2018-11-03T14:17:08.061Z,10.60
2018-11-03T14:19:36.715Z,10.50
2018-11-03T14:22:05.590Z,10.50
2018-11-03T14:24:34.289Z,10.50
2018-11-03T14:27:02.911Z,10.40
2018-11-03T14:29:31.556Z,10.40
2018-11-03T14:32:00.317Z,10.40
2018-11-03T14:34:29.066Z,10.40
2018-11-03T14:36:57.874Z,10.30
2018-11-03T14:39:26.485Z,10.30
2018-11-03T14:41:55.327Z,10.30
2018-11-03T14:44:24.229Z,10.30
2018-11-03T14:46:52.951Z,10.30
2018-11-03T14:49:21.837Z,10.30
2018-11-03T14:51:50.503Z,10.20
2018-11-03T14:54:19.153Z,10.30
2018-11-03T14:56:47.914Z,10.20
2018-11-03T14:59:16.384Z,10.20
2018-11-03T15:01:45.007Z,10.20
2018-11-03T15:04:13.633Z,10.20
2018-11-03T15:06:42.336Z,10.20
2018-11-03T15:09:10.925Z,10.10
2018-11-03T15:11:39.698Z,10.10
2018-11-03T15:14:09.590Z,10.10
2018-11-03T15:16:38.524Z,10.10
2018-11-03T15:19:07.170Z,10.00
2018-11-03T15:21:35.881Z,10.00
2018-11-03T15:24:04.503Z,10.00
2018-11-03T15:26:33.258Z,9.90
2018-11-03T15:29:01.899Z,9.80
2018-11-03T15:31:30.466Z,9.80
2018-11-03T15:33:59.153Z,9.80
2018-11-03T15:36:27.906Z,9.80
2018-11-03T15:38:56.625Z,9.80
2018-11-03T15:41:25.251Z,9.80
2018-11-03T15:43:53.821Z,9.80
2018-11-03T15:46:22.405Z,9.70
2018-11-03T15:48:51.153Z,9.70
2018-11-03T15:51:19.890Z,9.70
2018-11-03T15:53:48.621Z,9.70
2018-11-03T15:56:17.176Z,9.70
2018-11-03T15:58:45.869Z,9.70
2018-11-03T16:01:14.566Z,9.60
2018-11-03T16:03:43.165Z,9.60
2018-11-03T16:06:11.742Z,9.60
2018-11-03T16:08:40.438Z,9.60
2018-11-03T16:11:09.111Z,9.60
2018-11-03T16:13:37.719Z,9.60
2018-11-03T16:16:06.328Z,9.60
2018-11-03T16:18:34.902Z,9.60
2018-11-03T16:21:03.531Z,9.60
2018-11-03T16:23:32.212Z,9.50
2018-11-03T16:26:00.979Z,9.50
2018-11-03T16:28:29.560Z,9.50
2018-11-03T16:30:58.122Z,9.50
2018-11-03T16:33:26.719Z,9.50
2018-11-03T16:35:55.406Z,9.50
2018-11-03T16:38:24.046Z,9.40
2018-11-03T16:40:52.637Z,9.40
2018-11-03T16:43:21.237Z,9.40
2018-11-03T16:45:49.973Z,9.40
2018-11-03T16:48:18.518Z,9.40
2018-11-03T16:50:47.162Z,9.40
2018-11-03T16:53:15.768Z,9.40
2018-11-03T16:55:44.406Z,9.40
2018-11-03T16:58:12.993Z,9.40
2018-11-03T17:00:41.602Z,9.40
2018-11-03T17:03:10.142Z,9.40
2018-11-03T17:05:38.782Z,9.30
2018-11-03T17:08:07.437Z,9.30
2018-11-03T17:10:36.060Z,9.30
2018-11-03T17:13:04.800Z,9.40
2018-11-03T17:15:33.322Z,9.30
2018-11-03T17:18:01.942Z,9.30
2018-11-03T17:20:30.821Z,9.30
2018-11-03T17:22:59.503Z,9.30
2018-11-03T17:25:28.214Z,9.30
2018-11-03T17:27:56.863Z,9.30
2018-11-03T17:30:25.613Z,9.30
2018-11-03T17:32:54.181Z,9.30
2018-11-03T17:35:22.742Z,9.30
2018-11-03T17:37:51.388Z,9.20
2018-11-03T17:40:20.011Z,9.20
2018-11-03T17:42:48.569Z,9.20
2018-11-03T17:45:17.177Z,9.30
2018-11-03T17:47:45.833Z,9.30
2018-11-03T17:50:14.457Z,9.20
2018-11-03T17:52:43.002Z,9.20
2018-11-03T17:55:11.800Z,9.20
2018-11-03T17:57:40.625Z,9.20
2018-11-03T18:00:12.051Z,9.20
2018-11-03T18:02:40.782Z,9.20
2018-11-03T18:05:09.445Z,9.20
2018-11-03T18:07:38.313Z,9.20
2018-11-03T18:10:08.681Z,9.20
2018-11-03T18:12:37.250Z,9.20
2018-11-03T18:15:06.801Z,9.20
2018-11-03T18:17:35.347Z,9.20
2018-11-03T18:20:04.337Z,9.20
2018-11-03T18:22:33.070Z,9.20
2018-11-03T18:25:01.752Z,9.20
2018-11-03T18:27:30.435Z,9.20
2018-11-03T18:29:59.191Z,9.20
2018-11-03T18:32:27.750Z,9.20
2018-11-03T18:34:56.418Z,9.20
2018-11-03T18:37:25.023Z,9.20
2018-11-03T18:39:53.609Z,9.20
2018-11-03T18:42:22.249Z,9.20
2018-11-03T18:44:50.919Z,9.20
2018-11-03T18:47:19.534Z,9.20
2018-11-03T18:49:48.303Z,9.20
2018-11-03T18:52:16.913Z,9.20
2018-11-03T18:54:45.638Z,9.20
2018-11-03T18:57:14.222Z,9.20
2018-11-03T18:59:42.919Z,9.20
2018-11-03T19:02:11.621Z,9.10
2018-11-03T19:04:40.166Z,9.20
2018-11-03T19:07:08.825Z,9.20
2018-11-03T19:09:37.463Z,9.20
2018-11-03T19:12:06.659Z,9.20
2018-11-03T19:14:35.700Z,9.20
2018-11-03T19:17:04.559Z,9.20
2018-11-03T19:19:33.106Z,9.20
2018-11-03T19:22:01.658Z,9.20
2018-11-03T19:24:30.218Z,9.20
2018-11-03T19:26:58.911Z,9.20
2018-11-03T19:29:27.510Z,9.20
2018-11-03T19:31:56.247Z,9.20
2018-11-03T19:34:24.834Z,9.30
2018-11-03T19:36:53.446Z,9.20
2018-11-03T19:39:22.018Z,9.20
2018-11-03T19:41:50.766Z,9.20
2018-11-03T19:44:19.361Z,9.30
2018-11-03T19:46:47.944Z,9.30
2018-11-03T19:49:16.610Z,9.30
2018-11-03T19:51:45.277Z,9.30
2018-11-03T19:54:14.338Z,9.30
2018-11-03T19:56:42.927Z,9.30
2018-11-03T19:59:11.589Z,9.30
2018-11-03T20:01:40.257Z,9.30
2018-11-03T20:04:08.798Z,9.30
2018-11-03T20:06:37.402Z,9.30
2018-11-03T20:09:07.286Z,9.30
2018-11-03T20:11:36.138Z,9.40
2018-11-03T20:14:04.862Z,9.40
2018-11-03T20:16:34.096Z,9.40
2018-11-03T20:19:02.726Z,9.40
2018-11-03T20:21:31.370Z,9.40
2018-11-03T20:24:00.537Z,9.40
2018-11-03T20:26:29.167Z,9.40
2018-11-03T20:28:57.793Z,9.30
2018-11-03T20:31:26.373Z,9.30
2018-11-03T20:33:54.949Z,9.40
2018-11-03T20:36:23.635Z,9.40
2018-11-03T20:38:52.313Z,9.40
2018-11-03T20:41:20.995Z,9.40
2018-11-03T20:43:49.577Z,9.40
2018-11-03T20:46:18.302Z,9.40
2018-11-03T20:48:46.860Z,9.40
2018-11-03T20:51:15.473Z,9.40
2018-11-03T20:53:44.279Z,9.40
2018-11-03T20:56:12.840Z,9.40
2018-11-03T20:58:41.572Z,9.40
2018-11-03T21:01:10.210Z,9.40
2018-11-03T21:03:38.806Z,9.40
2018-11-03T21:06:07.434Z,9.40
2018-11-03T21:08:36.150Z,9.30
2018-11-03T21:11:04.830Z,9.30
2018-11-03T21:13:33.577Z,9.30
2018-11-03T21:16:02.113Z,9.30
2018-11-03T21:18:30.804Z,9.30
2018-11-03T21:20:59.478Z,9.30
2018-11-03T21:23:28.139Z,9.40
2018-11-03T21:25:57.184Z,9.40
2018-11-03T21:28:25.885Z,9.30
2018-11-03T21:30:54.668Z,9.40
2018-11-03T21:33:23.345Z,9.30
2018-11-03T21:35:52.053Z,9.30
2018-11-03T21:38:20.724Z,9.30
2018-11-03T21:40:49.283Z,9.30
2018-11-03T21:43:17.853Z,9.30
2018-11-03T21:45:46.462Z,9.30
2018-11-03T21:48:15.195Z,9.30
2018-11-03T21:50:43.754Z,9.30
2018-11-03T21:53:12.423Z,9.30
2018-11-03T21:55:41.004Z,9.30
2018-11-03T21:58:09.538Z,9.30
2018-11-03T22:00:38.229Z,9.30
2018-11-03T22:03:06.782Z,9.30
2018-11-03T22:05:35.369Z,9.30
2018-11-03T22:08:04.056Z,9.30
2018-11-03T22:10:32.824Z,9.30
2018-11-03T22:13:01.586Z,9.20
2018-11-03T22:15:30.253Z,9.20
2018-11-03T22:17:58.921Z,9.20
2018-11-03T22:20:27.503Z,9.20
2018-11-03T22:22:56.230Z,9.20
2018-11-03T22:25:24.801Z,9.20
2018-11-03T22:27:53.521Z,9.20
2018-11-03T22:30:22.111Z,9.20
2018-11-03T22:32:50.705Z,9.20
2018-11-03T22:35:19.255Z,9.20
2018-11-03T22:37:47.869Z,9.20
2018-11-03T22:40:16.450Z,9.20
2018-11-03T22:42:45.049Z,9.20
2018-11-03T22:45:13.667Z,9.10
2018-11-03T22:47:42.339Z,9.10
2018-11-03T22:50:11.005Z,9.10
2018-11-03T22:52:39.669Z,9.20
2018-11-03T22:55:08.314Z,9.10
2018-11-03T22:57:36.981Z,9.20
2018-11-03T23:00:07.506Z,9.20
2018-11-03T23:02:36.073Z,9.10
2018-11-03T23:05:05.123Z,9.10
2018-11-03T23:07:33.680Z,9.10
2018-11-03T23:10:02.385Z,9.20
2018-11-03T23:12:31.242Z,9.10
2018-11-03T23:14:59.640Z,9.20
2018-11-03T23:17:28.191Z,9.10
2018-11-03T23:19:56.771Z,9.10
2018-11-03T23:22:25.425Z,9.10
2018-11-03T23:24:54.117Z,9.10
2018-11-03T23:27:22.742Z,9.10
2018-11-03T23:29:51.523Z,9.10
2018-11-03T23:32:20.131Z,9.10
2018-11-03T23:34:48.671Z,9.10
2018-11-03T23:37:17.412Z,9.10
2018-11-03T23:39:46.103Z,9.10
2018-11-03T23:42:14.639Z,9.10
2018-11-03T23:44:43.254Z,9.10
2018-11-03T23:47:11.822Z,9.00
2018-11-03T23:49:40.400Z,9.00
2018-11-03T23:52:08.965Z,9.00
2018-11-03T23:54:37.493Z,9.00
2018-11-03T23:57:06.319Z,9.00
2018-11-03T23:59:35.040Z,9.00
